sensor_id;sensor_type;location;lat;lon;timestamp;P1;durP1;ratioP1;P2;durP2;ratioP2
28623;SDS011;15813;46.932;19.658;2023-06-14T00:02:04;5.30;;;3.30;;
28623;SDS011;15813;46.932;19.658;2023-06-14T00:04:29;7.82;;;3.25;;
28623;SDS011;15813;46.932;19.658;2023-06-14T00:06:56;7.50;;;3.78;;
28623;SDS011;15813;46.932;19.658;2023-06-14T00:09:21;7.13;;;3.70;;
28623;SDS011;15813;46.932;19.658;2023-06-14T00:11:47;10.85;;;3.35;;
28623;SDS011;15813;46.932;19.658;2023-06-14T00:14:12;6.90;;;4.15;;
28623;SDS011;15813;46.932;19.658;2023-06-14T00:16:39;6.15;;;3.83;;
28623;SDS011;15813;46.932;19.658;2023-06-14T00:19:07;9.02;;;3.13;;
28623;SDS011;15813;46.932;19.658;2023-06-14T00:21:33;7.53;;;3.90;;
28623;SDS011;15813;46.932;19.658;2023-06-14T00:24:00;7.22;;;3.60;;
28623;SDS011;15813;46.932;19.658;2023-06-14T00:26:25;4.80;;;2.83;;
28623;SDS011;15813;46.932;19.658;2023-06-14T00:28:51;6.05;;;3.90;;
28623;SDS011;15813;46.932;19.658;2023-06-14T00:31:16;9.25;;;3.70;;
28623;SDS011;15813;46.932;19.658;2023-06-14T00:33:42;7.05;;;4.18;;
28623;SDS011;15813;46.932;19.658;2023-06-14T00:36:07;7.60;;;3.95;;
28623;SDS011;15813;46.932;19.658;2023-06-14T00:38:32;8.75;;;3.78;;
28623;SDS011;15813;46.932;19.658;2023-06-14T00:40:57;6.80;;;4.05;;
28623;SDS011;15813;46.932;19.658;2023-06-14T00:43:23;7.22;;;4.00;;
28623;SDS011;15813;46.932;19.658;2023-06-14T00:45:48;8.98;;;4.30;;
28623;SDS011;15813;46.932;19.658;2023-06-14T00:48:14;9.65;;;5.53;;
28623;SDS011;15813;46.932;19.658;2023-06-14T00:50:40;10.18;;;4.10;;
28623;SDS011;15813;46.932;19.658;2023-06-14T00:53:06;6.18;;;3.88;;
28623;SDS011;15813;46.932;19.658;2023-06-14T00:55:32;13.60;;;4.65;;
28623;SDS011;15813;46.932;19.658;2023-06-14T00:57:58;8.77;;;4.75;;
28623;SDS011;15813;46.932;19.658;2023-06-14T01:00:23;10.02;;;5.85;;
28623;SDS011;15813;46.932;19.658;2023-06-14T01:02:48;9.50;;;4.35;;
28623;SDS011;15813;46.932;19.658;2023-06-14T01:05:14;12.18;;;4.75;;
28623;SDS011;15813;46.932;19.658;2023-06-14T01:15:26;6.78;;;4.05;;
28623;SDS011;15813;46.932;19.658;2023-06-14T01:17:51;8.98;;;4.30;;
28623;SDS011;15813;46.932;19.658;2023-06-14T01:20:21;9.52;;;5.25;;
28623;SDS011;15813;46.932;19.658;2023-06-14T01:22:50;7.63;;;3.95;;
28623;SDS011;15813;46.932;19.658;2023-06-14T01:27:41;7.82;;;4.68;;
28623;SDS011;15813;46.932;19.658;2023-06-14T01:30:07;11.93;;;4.68;;
28623;SDS011;15813;46.932;19.658;2023-06-14T01:32:33;9.18;;;5.13;;
28623;SDS011;15813;46.932;19.658;2023-06-14T01:34:58;11.45;;;4.47;;
28623;SDS011;15813;46.932;19.658;2023-06-14T01:37:23;6.85;;;4.50;;
28623;SDS011;15813;46.932;19.658;2023-06-14T01:39:48;8.57;;;4.45;;
28623;SDS011;15813;46.932;19.658;2023-06-14T01:42:15;7.93;;;4.13;;
28623;SDS011;15813;46.932;19.658;2023-06-14T01:44:41;9.25;;;5.25;;
28623;SDS011;15813;46.932;19.658;2023-06-14T01:47:07;10.18;;;5.15;;
28623;SDS011;15813;46.932;19.658;2023-06-14T01:49:33;11.13;;;4.85;;
28623;SDS011;15813;46.932;19.658;2023-06-14T01:51:59;10.80;;;5.63;;
28623;SDS011;15813;46.932;19.658;2023-06-14T01:54:24;8.23;;;4.70;;
28623;SDS011;15813;46.932;19.658;2023-06-14T01:56:50;10.48;;;4.93;;
28623;SDS011;15813;46.932;19.658;2023-06-14T01:59:16;12.07;;;4.78;;
28623;SDS011;15813;46.932;19.658;2023-06-14T02:01:41;7.43;;;4.85;;
28623;SDS011;15813;46.932;19.658;2023-06-14T02:04:06;10.55;;;5.55;;
28623;SDS011;15813;46.932;19.658;2023-06-14T02:06:31;10.15;;;4.90;;
28623;SDS011;15813;46.932;19.658;2023-06-14T02:08:58;10.40;;;5.60;;
28623;SDS011;15813;46.932;19.658;2023-06-14T02:11:23;8.32;;;4.57;;
28623;SDS011;15813;46.932;19.658;2023-06-14T02:13:48;12.70;;;5.25;;
28623;SDS011;15813;46.932;19.658;2023-06-14T02:16:14;8.02;;;5.10;;
28623;SDS011;15813;46.932;19.658;2023-06-14T02:18:39;9.45;;;5.15;;
28623;SDS011;15813;46.932;19.658;2023-06-14T02:21:05;11.95;;;5.40;;
28623;SDS011;15813;46.932;19.658;2023-06-14T02:23:30;7.55;;;4.50;;
28623;SDS011;15813;46.932;19.658;2023-06-14T02:25:57;10.57;;;4.32;;
28623;SDS011;15813;46.932;19.658;2023-06-14T02:28:22;7.40;;;4.80;;
28623;SDS011;15813;46.932;19.658;2023-06-14T02:30:47;13.15;;;6.88;;
28623;SDS011;15813;46.932;19.658;2023-06-14T02:33:12;8.65;;;4.07;;
28623;SDS011;15813;46.932;19.658;2023-06-14T02:35:38;11.98;;;5.43;;
28623;SDS011;15813;46.932;19.658;2023-06-14T02:38:03;9.90;;;5.05;;
28623;SDS011;15813;46.932;19.658;2023-06-14T02:40:28;7.47;;;4.60;;
28623;SDS011;15813;46.932;19.658;2023-06-14T02:42:54;9.23;;;5.53;;
28623;SDS011;15813;46.932;19.658;2023-06-14T02:45:19;8.85;;;5.00;;
28623;SDS011;15813;46.932;19.658;2023-06-14T02:47:45;10.60;;;6.05;;
28623;SDS011;15813;46.932;19.658;2023-06-14T02:50:11;11.60;;;4.85;;
28623;SDS011;15813;46.932;19.658;2023-06-14T02:52:36;10.13;;;6.18;;
28623;SDS011;15813;46.932;19.658;2023-06-14T02:55:01;7.50;;;5.30;;
28623;SDS011;15813;46.932;19.658;2023-06-14T02:57:27;10.38;;;6.05;;
28623;SDS011;15813;46.932;19.658;2023-06-14T02:59:52;11.75;;;6.15;;
28623;SDS011;15813;46.932;19.658;2023-06-14T03:02:17;12.63;;;5.60;;
28623;SDS011;15813;46.932;19.658;2023-06-14T03:04:43;11.40;;;5.72;;
28623;SDS011;15813;46.932;19.658;2023-06-14T03:07:09;7.75;;;4.60;;
28623;SDS011;15813;46.932;19.658;2023-06-14T03:09:35;8.93;;;5.78;;
28623;SDS011;15813;46.932;19.658;2023-06-14T03:12:02;10.15;;;5.88;;
28623;SDS011;15813;46.932;19.658;2023-06-14T03:14:28;12.80;;;6.20;;
28623;SDS011;15813;46.932;19.658;2023-06-14T03:16:54;9.85;;;6.25;;
28623;SDS011;15813;46.932;19.658;2023-06-14T03:19:21;10.57;;;5.82;;
28623;SDS011;15813;46.932;19.658;2023-06-14T03:21:47;10.85;;;5.93;;
28623;SDS011;15813;46.932;19.658;2023-06-14T03:24:12;9.52;;;5.88;;
28623;SDS011;15813;46.932;19.658;2023-06-14T03:26:37;14.18;;;7.65;;
28623;SDS011;15813;46.932;19.658;2023-06-14T03:29:03;11.40;;;6.15;;
28623;SDS011;15813;46.932;19.658;2023-06-14T03:31:29;14.40;;;6.75;;
28623;SDS011;15813;46.932;19.658;2023-06-14T03:36:22;11.02;;;6.47;;
28623;SDS011;15813;46.932;19.658;2023-06-14T03:38:47;9.50;;;6.15;;
28623;SDS011;15813;46.932;19.658;2023-06-14T03:41:13;14.43;;;6.47;;
28623;SDS011;15813;46.932;19.658;2023-06-14T03:43:38;11.30;;;6.88;;
28623;SDS011;15813;46.932;19.658;2023-06-14T03:46:03;11.57;;;6.38;;
28623;SDS011;15813;46.932;19.658;2023-06-14T03:48:29;15.38;;;7.50;;
28623;SDS011;15813;46.932;19.658;2023-06-14T03:50:54;14.30;;;7.93;;
28623;SDS011;15813;46.932;19.658;2023-06-14T03:53:21;13.65;;;7.28;;
28623;SDS011;15813;46.932;19.658;2023-06-14T03:55:48;11.32;;;7.20;;
28623;SDS011;15813;46.932;19.658;2023-06-14T03:58:14;12.73;;;7.47;;
28623;SDS011;15813;46.932;19.658;2023-06-14T04:00:39;12.93;;;7.45;;
28623;SDS011;15813;46.932;19.658;2023-06-14T04:03:05;13.43;;;6.70;;
28623;SDS011;15813;46.932;19.658;2023-06-14T04:05:30;21.33;;;7.70;;
28623;SDS011;15813;46.932;19.658;2023-06-14T04:07:56;18.17;;;7.50;;
28623;SDS011;15813;46.932;19.658;2023-06-14T04:10:22;16.98;;;7.43;;
28623;SDS011;15813;46.932;19.658;2023-06-14T04:12:47;13.63;;;7.25;;
28623;SDS011;15813;46.932;19.658;2023-06-14T04:15:12;13.00;;;7.38;;
28623;SDS011;15813;46.932;19.658;2023-06-14T04:17:38;13.02;;;6.93;;
28623;SDS011;15813;46.932;19.658;2023-06-14T04:20:04;17.27;;;8.10;;
28623;SDS011;15813;46.932;19.658;2023-06-14T04:22:31;11.52;;;7.13;;
28623;SDS011;15813;46.932;19.658;2023-06-14T04:24:57;19.25;;;7.88;;
28623;SDS011;15813;46.932;19.658;2023-06-14T04:27:22;11.35;;;6.32;;
28623;SDS011;15813;46.932;19.658;2023-06-14T04:29:50;14.65;;;7.18;;
28623;SDS011;15813;46.932;19.658;2023-06-14T04:32:21;14.23;;;7.53;;
28623;SDS011;15813;46.932;19.658;2023-06-14T04:34:46;14.15;;;8.50;;
28623;SDS011;15813;46.932;19.658;2023-06-14T04:37:12;21.20;;;8.02;;
28623;SDS011;15813;46.932;19.658;2023-06-14T04:39:38;13.95;;;8.07;;
28623;SDS011;15813;46.932;19.658;2023-06-14T04:42:03;16.55;;;9.10;;
28623;SDS011;15813;46.932;19.658;2023-06-14T04:44:29;13.73;;;7.65;;
28623;SDS011;15813;46.932;19.658;2023-06-14T04:46:57;15.07;;;8.23;;
28623;SDS011;15813;46.932;19.658;2023-06-14T04:49:23;17.30;;;8.18;;
28623;SDS011;15813;46.932;19.658;2023-06-14T04:51:49;11.95;;;7.30;;
28623;SDS011;15813;46.932;19.658;2023-06-14T04:54:22;12.48;;;7.55;;
28623;SDS011;15813;46.932;19.658;2023-06-14T04:56:47;17.92;;;8.15;;
28623;SDS011;15813;46.932;19.658;2023-06-14T04:59:13;15.23;;;7.97;;
28623;SDS011;15813;46.932;19.658;2023-06-14T05:01:39;12.88;;;7.68;;
28623;SDS011;15813;46.932;19.658;2023-06-14T05:04:05;16.02;;;7.60;;
28623;SDS011;15813;46.932;19.658;2023-06-14T05:06:30;16.08;;;8.40;;
28623;SDS011;15813;46.932;19.658;2023-06-14T05:08:56;15.07;;;7.95;;
28623;SDS011;15813;46.932;19.658;2023-06-14T05:11:21;14.15;;;8.43;;
28623;SDS011;15813;46.932;19.658;2023-06-14T05:13:49;14.18;;;7.85;;
28623;SDS011;15813;46.932;19.658;2023-06-14T05:16:15;17.17;;;8.00;;
28623;SDS011;15813;46.932;19.658;2023-06-14T05:18:41;13.45;;;7.65;;
28623;SDS011;15813;46.932;19.658;2023-06-14T05:21:07;15.52;;;8.57;;
28623;SDS011;15813;46.932;19.658;2023-06-14T05:23:33;12.80;;;8.27;;
28623;SDS011;15813;46.932;19.658;2023-06-14T05:25:58;14.05;;;8.10;;
28623;SDS011;15813;46.932;19.658;2023-06-14T05:28:24;17.35;;;8.35;;
28623;SDS011;15813;46.932;19.658;2023-06-14T05:30:51;15.32;;;8.70;;
28623;SDS011;15813;46.932;19.658;2023-06-14T05:33:16;15.30;;;7.40;;
28623;SDS011;15813;46.932;19.658;2023-06-14T05:35:42;20.98;;;7.97;;
28623;SDS011;15813;46.932;19.658;2023-06-14T05:38:07;22.45;;;8.80;;
28623;SDS011;15813;46.932;19.658;2023-06-14T05:40:33;11.10;;;7.25;;
28623;SDS011;15813;46.932;19.658;2023-06-14T05:42:58;11.93;;;6.78;;
28623;SDS011;15813;46.932;19.658;2023-06-14T05:45:23;20.70;;;7.53;;
28623;SDS011;15813;46.932;19.658;2023-06-14T05:47:48;14.88;;;7.40;;
28623;SDS011;15813;46.932;19.658;2023-06-14T05:50:14;14.15;;;8.52;;
28623;SDS011;15813;46.932;19.658;2023-06-14T05:52:39;12.60;;;6.82;;
28623;SDS011;15813;46.932;19.658;2023-06-14T05:55:04;13.73;;;7.38;;
28623;SDS011;15813;46.932;19.658;2023-06-14T05:57:31;16.58;;;8.00;;
28623;SDS011;15813;46.932;19.658;2023-06-14T05:59:56;16.20;;;6.70;;
28623;SDS011;15813;46.932;19.658;2023-06-14T06:02:21;15.93;;;7.60;;
28623;SDS011;15813;46.932;19.658;2023-06-14T06:04:46;10.93;;;6.53;;
28623;SDS011;15813;46.932;19.658;2023-06-14T06:07:12;15.25;;;6.95;;
28623;SDS011;15813;46.932;19.658;2023-06-14T06:09:37;11.50;;;6.45;;
28623;SDS011;15813;46.932;19.658;2023-06-14T06:12:03;12.23;;;6.22;;
28623;SDS011;15813;46.932;19.658;2023-06-14T06:14:28;13.35;;;6.65;;
28623;SDS011;15813;46.932;19.658;2023-06-14T06:16:54;10.65;;;6.00;;
28623;SDS011;15813;46.932;19.658;2023-06-14T06:19:19;11.15;;;6.07;;
28623;SDS011;15813;46.932;19.658;2023-06-14T06:21:44;9.93;;;5.53;;
28623;SDS011;15813;46.932;19.658;2023-06-14T06:24:10;13.50;;;5.27;;
28623;SDS011;15813;46.932;19.658;2023-06-14T06:26:35;12.00;;;5.22;;
28623;SDS011;15813;46.932;19.658;2023-06-14T06:29:01;8.05;;;5.35;;
28623;SDS011;15813;46.932;19.658;2023-06-14T06:31:26;9.85;;;4.38;;
28623;SDS011;15813;46.932;19.658;2023-06-14T06:33:52;11.13;;;5.05;;
28623;SDS011;15813;46.932;19.658;2023-06-14T06:36:19;10.90;;;4.63;;
28623;SDS011;15813;46.932;19.658;2023-06-14T06:38:45;10.85;;;4.43;;
28623;SDS011;15813;46.932;19.658;2023-06-14T06:41:10;11.52;;;5.57;;
28623;SDS011;15813;46.932;19.658;2023-06-14T06:43:35;7.70;;;4.93;;
28623;SDS011;15813;46.932;19.658;2023-06-14T06:46:01;8.93;;;5.47;;
28623;SDS011;15813;46.932;19.658;2023-06-14T06:48:26;10.80;;;5.00;;
28623;SDS011;15813;46.932;19.658;2023-06-14T06:50:51;11.43;;;5.57;;
28623;SDS011;15813;46.932;19.658;2023-06-14T06:53:17;7.05;;;4.63;;
28623;SDS011;15813;46.932;19.658;2023-06-14T06:55:43;14.77;;;5.55;;
28623;SDS011;15813;46.932;19.658;2023-06-14T06:58:08;13.07;;;4.80;;
28623;SDS011;15813;46.932;19.658;2023-06-14T07:00:34;12.43;;;5.30;;
28623;SDS011;15813;46.932;19.658;2023-06-14T07:02:59;9.95;;;4.80;;
28623;SDS011;15813;46.932;19.658;2023-06-14T07:05:25;8.70;;;4.00;;
28623;SDS011;15813;46.932;19.658;2023-06-14T07:07:50;7.07;;;4.55;;
28623;SDS011;15813;46.932;19.658;2023-06-14T07:10:15;10.50;;;5.45;;
28623;SDS011;15813;46.932;19.658;2023-06-14T07:12:41;8.88;;;4.70;;
28623;SDS011;15813;46.932;19.658;2023-06-14T07:15:06;6.67;;;3.83;;
28623;SDS011;15813;46.932;19.658;2023-06-14T07:17:33;7.78;;;5.05;;
28623;SDS011;15813;46.932;19.658;2023-06-14T07:19:59;8.40;;;4.45;;
28623;SDS011;15813;46.932;19.658;2023-06-14T07:22:24;8.07;;;3.58;;
28623;SDS011;15813;46.932;19.658;2023-06-14T07:24:49;8.03;;;4.27;;
28623;SDS011;15813;46.932;19.658;2023-06-14T07:27:14;6.13;;;4.10;;
28623;SDS011;15813;46.932;19.658;2023-06-14T07:29:40;5.50;;;3.87;;
28623;SDS011;15813;46.932;19.658;2023-06-14T07:32:05;6.63;;;4.15;;
28623;SDS011;15813;46.932;19.658;2023-06-14T07:34:31;8.20;;;3.65;;
28623;SDS011;15813;46.932;19.658;2023-06-14T07:36:56;5.50;;;3.97;;
28623;SDS011;15813;46.932;19.658;2023-06-14T07:39:21;9.77;;;4.13;;
28623;SDS011;15813;46.932;19.658;2023-06-14T07:41:47;9.45;;;4.47;;
28623;SDS011;15813;46.932;19.658;2023-06-14T07:44:12;7.60;;;4.53;;
28623;SDS011;15813;46.932;19.658;2023-06-14T07:46:38;7.60;;;4.45;;
28623;SDS011;15813;46.932;19.658;2023-06-14T07:49:04;10.07;;;5.00;;
28623;SDS011;15813;46.932;19.658;2023-06-14T07:51:30;6.32;;;4.18;;
28623;SDS011;15813;46.932;19.658;2023-06-14T07:53:55;7.65;;;3.67;;
28623;SDS011;15813;46.932;19.658;2023-06-14T07:56:21;6.13;;;3.63;;
28623;SDS011;15813;46.932;19.658;2023-06-14T07:58:47;7.15;;;3.67;;
28623;SDS011;15813;46.932;19.658;2023-06-14T08:01:12;3.80;;;2.90;;
28623;SDS011;15813;46.932;19.658;2023-06-14T08:03:38;10.43;;;4.20;;
28623;SDS011;15813;46.932;19.658;2023-06-14T08:06:03;7.53;;;3.10;;
28623;SDS011;15813;46.932;19.658;2023-06-14T08:08:29;4.90;;;3.42;;
28623;SDS011;15813;46.932;19.658;2023-06-14T08:10:54;7.15;;;3.20;;
28623;SDS011;15813;46.932;19.658;2023-06-14T08:13:20;9.02;;;3.10;;
28623;SDS011;15813;46.932;19.658;2023-06-14T08:15:45;6.35;;;3.15;;
28623;SDS011;15813;46.932;19.658;2023-06-14T08:18:10;7.15;;;3.53;;
28623;SDS011;15813;46.932;19.658;2023-06-14T08:20:36;7.17;;;2.80;;
28623;SDS011;15813;46.932;19.658;2023-06-14T08:23:04;4.15;;;2.95;;
28623;SDS011;15813;46.932;19.658;2023-06-14T08:25:29;7.30;;;2.57;;
28623;SDS011;15813;46.932;19.658;2023-06-14T08:27:55;4.53;;;2.83;;
28623;SDS011;15813;46.932;19.658;2023-06-14T08:30:21;4.40;;;2.08;;
28623;SDS011;15813;46.932;19.658;2023-06-14T08:32:46;6.13;;;3.03;;
28623;SDS011;15813;46.932;19.658;2023-06-14T08:35:11;2.73;;;1.83;;
28623;SDS011;15813;46.932;19.658;2023-06-14T08:37:40;3.58;;;2.10;;
28623;SDS011;15813;46.932;19.658;2023-06-14T08:40:18;3.03;;;2.08;;
28623;SDS011;15813;46.932;19.658;2023-06-14T08:42:44;4.65;;;2.30;;
28623;SDS011;15813;46.932;19.658;2023-06-14T08:45:10;7.32;;;2.72;;
28623;SDS011;15813;46.932;19.658;2023-06-14T08:47:35;3.73;;;2.50;;
28623;SDS011;15813;46.932;19.658;2023-06-14T08:50:01;7.20;;;2.60;;
28623;SDS011;15813;46.932;19.658;2023-06-14T08:52:28;4.85;;;2.80;;
28623;SDS011;15813;46.932;19.658;2023-06-14T08:54:58;8.20;;;2.97;;
28623;SDS011;15813;46.932;19.658;2023-06-14T08:57:25;5.55;;;2.53;;
28623;SDS011;15813;46.932;19.658;2023-06-14T08:59:55;4.43;;;2.47;;
28623;SDS011;15813;46.932;19.658;2023-06-14T09:02:22;14.18;;;3.25;;
28623;SDS011;15813;46.932;19.658;2023-06-14T09:04:47;4.03;;;2.65;;
28623;SDS011;15813;46.932;19.658;2023-06-14T09:07:14;315.83;;;23.60;;
28623;SDS011;15813;46.932;19.658;2023-06-14T09:09:40;3.77;;;2.33;;
28623;SDS011;15813;46.932;19.658;2023-06-14T09:12:07;7.25;;;3.03;;
28623;SDS011;15813;46.932;19.658;2023-06-14T09:14:35;7.53;;;2.70;;
28623;SDS011;15813;46.932;19.658;2023-06-14T09:17:03;3.40;;;2.30;;
28623;SDS011;15813;46.932;19.658;2023-06-14T09:19:28;4.00;;;2.20;;
28623;SDS011;15813;46.932;19.658;2023-06-14T09:21:54;5.07;;;2.20;;
28623;SDS011;15813;46.932;19.658;2023-06-14T09:24:20;3.70;;;2.67;;
28623;SDS011;15813;46.932;19.658;2023-06-14T09:26:50;5.35;;;2.30;;
28623;SDS011;15813;46.932;19.658;2023-06-14T09:29:16;4.15;;;2.20;;
28623;SDS011;15813;46.932;19.658;2023-06-14T09:31:42;4.85;;;2.72;;
28623;SDS011;15813;46.932;19.658;2023-06-14T09:34:07;5.90;;;2.30;;
28623;SDS011;15813;46.932;19.658;2023-06-14T09:36:34;4.72;;;2.67;;
28623;SDS011;15813;46.932;19.658;2023-06-14T09:38:59;6.77;;;2.30;;
28623;SDS011;15813;46.932;19.658;2023-06-14T09:43:58;5.20;;;2.88;;
28623;SDS011;15813;46.932;19.658;2023-06-14T09:46:26;7.47;;;2.50;;
28623;SDS011;15813;46.932;19.658;2023-06-14T09:48:51;4.32;;;2.40;;
28623;SDS011;15813;46.932;19.658;2023-06-14T09:51:17;5.60;;;2.30;;
28623;SDS011;15813;46.932;19.658;2023-06-14T09:53:43;3.10;;;2.20;;
28623;SDS011;15813;46.932;19.658;2023-06-14T09:56:09;4.00;;;2.50;;
28623;SDS011;15813;46.932;19.658;2023-06-14T09:58:35;4.15;;;2.40;;
28623;SDS011;15813;46.932;19.658;2023-06-14T10:01:02;7.05;;;3.72;;
28623;SDS011;15813;46.932;19.658;2023-06-14T10:03:28;4.75;;;3.10;;
28623;SDS011;15813;46.932;19.658;2023-06-14T10:05:55;4.60;;;2.70;;
28623;SDS011;15813;46.932;19.658;2023-06-14T10:08:23;6.25;;;2.33;;
28623;SDS011;15813;46.932;19.658;2023-06-14T10:10:50;5.68;;;2.50;;
28623;SDS011;15813;46.932;19.658;2023-06-14T10:13:16;4.72;;;3.00;;
28623;SDS011;15813;46.932;19.658;2023-06-14T10:15:58;3.20;;;2.63;;
28623;SDS011;15813;46.932;19.658;2023-06-14T10:18:31;7.63;;;2.92;;
28623;SDS011;15813;46.932;19.658;2023-06-14T10:23:26;3.25;;;2.38;;
28623;SDS011;15813;46.932;19.658;2023-06-14T10:25:56;3.38;;;2.50;;
28623;SDS011;15813;46.932;19.658;2023-06-14T10:28:22;5.30;;;2.42;;
28623;SDS011;15813;46.932;19.658;2023-06-14T10:33:33;3.72;;;2.70;;
28623;SDS011;15813;46.932;19.658;2023-06-14T10:38:43;5.70;;;2.40;;
28623;SDS011;15813;46.932;19.658;2023-06-14T10:41:09;6.32;;;2.25;;
28623;SDS011;15813;46.932;19.658;2023-06-14T10:43:35;8.15;;;2.58;;
28623;SDS011;15813;46.932;19.658;2023-06-14T10:46:18;4.03;;;2.67;;
28623;SDS011;15813;46.932;19.658;2023-06-14T10:48:48;5.00;;;2.90;;
28623;SDS011;15813;46.932;19.658;2023-06-14T10:51:17;3.05;;;2.42;;
28623;SDS011;15813;46.932;19.658;2023-06-14T10:53:45;3.88;;;2.33;;
28623;SDS011;15813;46.932;19.658;2023-06-14T10:56:22;3.22;;;2.42;;
28623;SDS011;15813;46.932;19.658;2023-06-14T10:58:49;8.15;;;2.45;;
28623;SDS011;15813;46.932;19.658;2023-06-14T11:01:15;5.35;;;2.67;;
28623;SDS011;15813;46.932;19.658;2023-06-14T11:03:50;9.63;;;2.92;;
28623;SDS011;15813;46.932;19.658;2023-06-14T11:06:17;4.97;;;2.45;;
28623;SDS011;15813;46.932;19.658;2023-06-14T11:11:12;13.10;;;2.93;;
28623;SDS011;15813;46.932;19.658;2023-06-14T11:13:41;7.97;;;2.55;;
28623;SDS011;15813;46.932;19.658;2023-06-14T11:16:16;10.77;;;2.58;;
28623;SDS011;15813;46.932;19.658;2023-06-14T11:18:42;13.32;;;2.80;;
28623;SDS011;15813;46.932;19.658;2023-06-14T11:21:08;10.50;;;2.90;;
28623;SDS011;15813;46.932;19.658;2023-06-14T11:23:34;8.50;;;2.60;;
28623;SDS011;15813;46.932;19.658;2023-06-14T11:26:00;4.57;;;2.70;;
28623;SDS011;15813;46.932;19.658;2023-06-14T11:28:35;9.13;;;2.78;;
28623;SDS011;15813;46.932;19.658;2023-06-14T11:31:00;8.73;;;2.22;;
28623;SDS011;15813;46.932;19.658;2023-06-14T11:33:26;4.88;;;2.50;;
28623;SDS011;15813;46.932;19.658;2023-06-14T11:35:51;10.63;;;2.85;;
28623;SDS011;15813;46.932;19.658;2023-06-14T11:38:17;6.97;;;2.63;;
28623;SDS011;15813;46.932;19.658;2023-06-14T11:40:42;24.42;;;4.20;;
28623;SDS011;15813;46.932;19.658;2023-06-14T11:43:08;9.13;;;2.70;;
28623;SDS011;15813;46.932;19.658;2023-06-14T11:45:33;5.23;;;2.60;;
28623;SDS011;15813;46.932;19.658;2023-06-14T11:47:58;5.83;;;2.77;;
28623;SDS011;15813;46.932;19.658;2023-06-14T11:50:24;9.32;;;2.63;;
28623;SDS011;15813;46.932;19.658;2023-06-14T11:52:59;3.95;;;2.72;;
28623;SDS011;15813;46.932;19.658;2023-06-14T11:55:31;4.40;;;2.40;;
28623;SDS011;15813;46.932;19.658;2023-06-14T11:57:57;5.07;;;2.67;;
28623;SDS011;15813;46.932;19.658;2023-06-14T12:00:25;3.65;;;2.40;;
28623;SDS011;15813;46.932;19.658;2023-06-14T12:02:52;10.05;;;2.60;;
28623;SDS011;15813;46.932;19.658;2023-06-14T12:05:20;8.82;;;2.28;;
28623;SDS011;15813;46.932;19.658;2023-06-14T12:07:46;5.28;;;2.38;;
28623;SDS011;15813;46.932;19.658;2023-06-14T12:10:12;6.07;;;2.60;;
28623;SDS011;15813;46.932;19.658;2023-06-14T12:12:39;17.67;;;2.70;;
28623;SDS011;15813;46.932;19.658;2023-06-14T12:15:08;6.13;;;2.72;;
28623;SDS011;15813;46.932;19.658;2023-06-14T12:17:37;8.68;;;2.60;;
28623;SDS011;15813;46.932;19.658;2023-06-14T12:20:07;8.02;;;3.42;;
28623;SDS011;15813;46.932;19.658;2023-06-14T12:22:36;3.10;;;2.45;;
28623;SDS011;15813;46.932;19.658;2023-06-14T12:25:01;10.00;;;3.40;;
28623;SDS011;15813;46.932;19.658;2023-06-14T12:27:28;4.68;;;2.53;;
28623;SDS011;15813;46.932;19.658;2023-06-14T12:30:03;9.20;;;3.40;;
28623;SDS011;15813;46.932;19.658;2023-06-14T12:32:28;8.20;;;2.65;;
28623;SDS011;15813;46.932;19.658;2023-06-14T12:34:54;10.30;;;4.15;;
28623;SDS011;15813;46.932;19.658;2023-06-14T12:37:20;16.25;;;5.40;;
28623;SDS011;15813;46.932;19.658;2023-06-14T12:39:45;5.78;;;2.47;;
28623;SDS011;15813;46.932;19.658;2023-06-14T12:42:10;4.72;;;2.58;;
28623;SDS011;15813;46.932;19.658;2023-06-14T12:44:36;6.50;;;2.47;;
28623;SDS011;15813;46.932;19.658;2023-06-14T12:47:05;6.97;;;2.63;;
28623;SDS011;15813;46.932;19.658;2023-06-14T12:49:31;10.10;;;3.08;;
28623;SDS011;15813;46.932;19.658;2023-06-14T12:51:56;5.30;;;2.67;;
28623;SDS011;15813;46.932;19.658;2023-06-14T12:54:22;4.60;;;2.70;;
28623;SDS011;15813;46.932;19.658;2023-06-14T12:56:50;12.15;;;2.70;;
28623;SDS011;15813;46.932;19.658;2023-06-14T12:59:16;5.00;;;2.70;;
28623;SDS011;15813;46.932;19.658;2023-06-14T13:01:42;6.23;;;3.03;;
28623;SDS011;15813;46.932;19.658;2023-06-14T13:04:07;4.63;;;2.80;;
28623;SDS011;15813;46.932;19.658;2023-06-14T13:06:32;5.93;;;2.20;;
28623;SDS011;15813;46.932;19.658;2023-06-14T13:08:58;6.20;;;2.53;;
28623;SDS011;15813;46.932;19.658;2023-06-14T13:11:24;7.57;;;2.78;;
28623;SDS011;15813;46.932;19.658;2023-06-14T13:13:49;8.13;;;2.80;;
28623;SDS011;15813;46.932;19.658;2023-06-14T13:16:14;9.57;;;3.25;;
28623;SDS011;15813;46.932;19.658;2023-06-14T13:18:40;3.87;;;2.50;;
28623;SDS011;15813;46.932;19.658;2023-06-14T13:21:05;5.43;;;2.78;;
28623;SDS011;15813;46.932;19.658;2023-06-14T13:23:30;3.47;;;2.30;;
28623;SDS011;15813;46.932;19.658;2023-06-14T13:25:55;4.40;;;2.53;;
28623;SDS011;15813;46.932;19.658;2023-06-14T13:28:21;8.13;;;2.70;;
28623;SDS011;15813;46.932;19.658;2023-06-14T13:30:47;4.80;;;2.53;;
28623;SDS011;15813;46.932;19.658;2023-06-14T13:33:13;5.32;;;2.45;;
28623;SDS011;15813;46.932;19.658;2023-06-14T13:35:38;5.75;;;2.35;;
28623;SDS011;15813;46.932;19.658;2023-06-14T13:38:03;5.07;;;2.57;;
28623;SDS011;15813;46.932;19.658;2023-06-14T13:40:29;9.18;;;2.95;;
28623;SDS011;15813;46.932;19.658;2023-06-14T13:42:54;7.23;;;2.50;;
28623;SDS011;15813;46.932;19.658;2023-06-14T13:45:19;6.20;;;2.50;;
28623;SDS011;15813;46.932;19.658;2023-06-14T13:47:45;5.03;;;2.80;;
28623;SDS011;15813;46.932;19.658;2023-06-14T13:50:13;6.93;;;3.15;;
28623;SDS011;15813;46.932;19.658;2023-06-14T13:52:39;9.63;;;3.20;;
28623;SDS011;15813;46.932;19.658;2023-06-14T13:55:04;3.75;;;1.95;;
28623;SDS011;15813;46.932;19.658;2023-06-14T13:57:30;9.00;;;2.80;;
28623;SDS011;15813;46.932;19.658;2023-06-14T13:59:55;4.72;;;2.22;;
28623;SDS011;15813;46.932;19.658;2023-06-14T14:02:25;6.43;;;2.60;;
28623;SDS011;15813;46.932;19.658;2023-06-14T14:04:51;12.65;;;3.20;;
28623;SDS011;15813;46.932;19.658;2023-06-14T14:07:18;4.47;;;2.75;;
28623;SDS011;15813;46.932;19.658;2023-06-14T14:09:44;5.20;;;2.50;;
28623;SDS011;15813;46.932;19.658;2023-06-14T14:12:09;9.48;;;3.28;;
28623;SDS011;15813;46.932;19.658;2023-06-14T14:14:35;3.97;;;2.80;;
28623;SDS011;15813;46.932;19.658;2023-06-14T14:17:00;4.37;;;2.27;;
28623;SDS011;15813;46.932;19.658;2023-06-14T14:19:25;14.80;;;2.60;;
28623;SDS011;15813;46.932;19.658;2023-06-14T14:21:51;16.83;;;3.13;;
28623;SDS011;15813;46.932;19.658;2023-06-14T14:24:18;17.00;;;3.40;;
28623;SDS011;15813;46.932;19.658;2023-06-14T14:26:43;17.93;;;3.60;;
28623;SDS011;15813;46.932;19.658;2023-06-14T14:29:09;8.13;;;2.55;;
28623;SDS011;15813;46.932;19.658;2023-06-14T14:31:36;11.70;;;3.15;;
28623;SDS011;15813;46.932;19.658;2023-06-14T14:34:01;4.65;;;2.35;;
28623;SDS011;15813;46.932;19.658;2023-06-14T14:36:27;5.77;;;2.50;;
28623;SDS011;15813;46.932;19.658;2023-06-14T14:38:52;9.45;;;2.92;;
28623;SDS011;15813;46.932;19.658;2023-06-14T14:41:17;15.27;;;3.20;;
28623;SDS011;15813;46.932;19.658;2023-06-14T14:43:43;6.10;;;2.40;;
28623;SDS011;15813;46.932;19.658;2023-06-14T14:46:08;4.68;;;3.08;;
28623;SDS011;15813;46.932;19.658;2023-06-14T14:48:33;4.37;;;2.33;;